Miland, Texas
Current Conditions -  °F | °C
As of 6:56 AM on Saturday 20 Dec 2014 (Local Time) from KAQV Reporting Station
Overcast Overcast  
Wind Chill: 45°   Ceiling: 300
Heat Index: 47°   Visibility: 7mi
Dew Point: 45°   Wind: 5mph
Humidity: 93%   Direction: 30°NNE
Pressure: 30.17"   Gusts: NA
Location:  31.4918°N, 93.8786°W
Report Text: KAQV 201256Z AUTO 03004KT 7SM OVC003 08/07 A3017 RMK AO2 SLP218 T00830072 PNO $
Loading
Personal Weather Stations






























Interactive Weather Map New forecast layout! Learn more

10-Day Weather Forecast

Advertisements
Track Severe Weather on mobile